sensor_id;sensor_type;location;lat;lon;timestamp;pressure;altitude;pressure_sealevel;temperature;humidity
60019;BME280;45870;42.528;26.740;2023-04-20T00:01:16;99216.75;;;17.44;46.50
60019;BME280;45870;42.528;26.740;2023-04-20T00:03:41;99210.78;;;17.66;46.51
60019;BME280;45870;42.528;26.740;2023-04-20T00:06:07;99206.69;;;17.87;45.63
60019;BME280;45870;42.528;26.740;2023-04-20T00:08:33;99200.72;;;17.85;45.40
60019;BME280;45870;42.528;26.740;2023-04-20T00:10:59;99199.09;;;18.21;44.57
60019;BME280;45870;42.528;26.740;2023-04-20T00:13:25;99170.97;;;17.83;44.84
60019;BME280;45870;42.528;26.740;2023-04-20T00:15:50;99199.66;;;17.81;44.80
60019;BME280;45870;42.528;26.740;2023-04-20T00:18:16;99170.50;;;17.53;44.61
60019;BME280;45870;42.528;26.740;2023-04-20T00:20:41;99202.03;;;16.20;47.52
60019;BME280;45870;42.528;26.740;2023-04-20T00:23:07;99204.19;;;14.39;53.73
60019;BME280;45870;42.528;26.740;2023-04-20T00:25:33;99204.81;;;15.61;51.57
60019;BME280;45870;42.528;26.740;2023-04-20T00:27:58;99192.50;;;17.14;47.55
60019;BME280;45870;42.528;26.740;2023-04-20T00:30:24;99190.44;;;17.06;47.95
60019;BME280;45870;42.528;26.740;2023-04-20T00:32:50;99187.03;;;17.66;46.51
60019;BME280;45870;42.528;26.740;2023-04-20T00:35:16;99186.66;;;17.25;47.20
60019;BME280;45870;42.528;26.740;2023-04-20T00:37:41;99179.38;;;17.68;46.51
60019;BME280;45870;42.528;26.740;2023-04-20T00:40:07;99180.78;;;17.84;45.46
60019;BME280;45870;42.528;26.740;2023-04-20T00:42:34;99187.13;;;17.80;45.84
60019;BME280;45870;42.528;26.740;2023-04-20T00:44:59;99180.56;;;17.81;44.52
60019;BME280;45870;42.528;26.740;2023-04-20T00:47:25;99180.44;;;18.10;43.95
60019;BME280;45870;42.528;26.740;2023-04-20T00:49:51;99176.06;;;17.90;44.26
60019;BME280;45870;42.528;26.740;2023-04-20T00:52:18;99025.25;;;17.23;44.11
60019;BME280;45870;42.528;26.740;2023-04-20T00:54:45;99187.13;;;17.32;45.99
60019;BME280;45870;42.528;26.740;2023-04-20T00:57:13;99192.03;;;16.44;48.70
60019;BME280;45870;42.528;26.740;2023-04-20T00:59:39;99176.13;;;15.09;51.70
60019;BME280;45870;42.528;26.740;2023-04-20T01:02:05;99181.16;;;15.56;51.51
60019;BME280;45870;42.528;26.740;2023-04-20T01:04:33;99182.41;;;15.74;51.26
60019;BME280;45870;42.528;26.740;2023-04-20T01:07:00;99186.84;;;17.34;46.89
60019;BME280;45870;42.528;26.740;2023-04-20T01:09:27;99181.72;;;16.41;48.02
60019;BME280;45870;42.528;26.740;2023-04-20T01:11:53;99176.53;;;17.31;45.87
60019;BME280;45870;42.528;26.740;2023-04-20T01:14:18;99178.44;;;17.54;45.24
60019;BME280;45870;42.528;26.740;2023-04-20T01:16:44;99174.28;;;17.80;45.55
60019;BME280;45870;42.528;26.740;2023-04-20T01:19:11;99163.66;;;18.16;44.30
60019;BME280;45870;42.528;26.740;2023-04-20T01:21:37;99182.63;;;17.89;44.94
60019;BME280;45870;42.528;26.740;2023-04-20T01:24:03;99165.94;;;17.24;46.12
60019;BME280;45870;42.528;26.740;2023-04-20T01:26:28;99174.28;;;17.99;44.83
60019;BME280;45870;42.528;26.740;2023-04-20T01:28:54;99176.28;;;17.75;45.20
60019;BME280;45870;42.528;26.740;2023-04-20T01:31:20;99141.59;;;17.75;45.09
60019;BME280;45870;42.528;26.740;2023-04-20T01:33:46;99177.03;;;17.99;44.66
60019;BME280;45870;42.528;26.740;2023-04-20T01:36:12;99179.50;;;16.09;48.08
60019;BME280;45870;42.528;26.740;2023-04-20T01:38:38;99140.34;;;16.73;46.00
60019;BME280;45870;42.528;26.740;2023-04-20T01:41:05;99186.19;;;17.42;45.75
60019;BME280;45870;42.528;26.740;2023-04-20T01:43:32;99185.97;;;17.38;46.24
60019;BME280;45870;42.528;26.740;2023-04-20T01:45:58;99186.53;;;16.15;48.91
60019;BME280;45870;42.528;26.740;2023-04-20T01:48:24;99184.53;;;17.22;46.93
60019;BME280;45870;42.528;26.740;2023-04-20T01:50:50;99114.59;;;17.31;45.71
60019;BME280;45870;42.528;26.740;2023-04-20T01:53:16;99157.19;;;17.93;45.52
60019;BME280;45870;42.528;26.740;2023-04-20T01:55:42;99177.56;;;18.01;45.59
60019;BME280;45870;42.528;26.740;2023-04-20T01:58:10;99172.56;;;18.40;44.95
60019;BME280;45870;42.528;26.740;2023-04-20T02:00:36;99172.81;;;18.25;44.56
60019;BME280;45870;42.528;26.740;2023-04-20T02:03:02;99172.72;;;17.74;45.66
60019;BME280;45870;42.528;26.740;2023-04-20T02:05:27;99167.91;;;17.66;46.18
60019;BME280;45870;42.528;26.740;2023-04-20T02:07:53;99146.97;;;17.80;45.83
60019;BME280;45870;42.528;26.740;2023-04-20T02:10:19;99170.53;;;18.14;44.63
60019;BME280;45870;42.528;26.740;2023-04-20T02:12:44;99159.00;;;18.35;43.84
60019;BME280;45870;42.528;26.740;2023-04-20T02:15:10;99124.69;;;18.11;43.78
60019;BME280;45870;42.528;26.740;2023-04-20T02:17:36;99161.38;;;18.23;44.07
60019;BME280;45870;42.528;26.740;2023-04-20T02:20:03;99163.06;;;17.82;45.40
60019;BME280;45870;42.528;26.740;2023-04-20T02:22:33;99164.25;;;17.94;45.42
60019;BME280;45870;42.528;26.740;2023-04-20T02:25:03;99163.75;;;18.11;45.40
60019;BME280;45870;42.528;26.740;2023-04-20T02:27:30;99161.88;;;17.88;45.72
60019;BME280;45870;42.528;26.740;2023-04-20T02:29:56;99156.16;;;18.08;45.23
60019;BME280;45870;42.528;26.740;2023-04-20T02:32:21;99155.69;;;18.20;45.19
60019;BME280;45870;42.528;26.740;2023-04-20T02:34:47;99160.84;;;17.18;46.25
60019;BME280;45870;42.528;26.740;2023-04-20T02:37:13;99150.66;;;17.71;45.04
60019;BME280;45870;42.528;26.740;2023-04-20T02:39:38;99136.78;;;17.67;45.18
60019;BME280;45870;42.528;26.740;2023-04-20T02:42:04;99157.59;;;17.63;44.80
60019;BME280;45870;42.528;26.740;2023-04-20T02:44:30;99147.63;;;18.28;42.88
60019;BME280;45870;42.528;26.740;2023-04-20T02:46:56;99155.78;;;17.54;44.66
60019;BME280;45870;42.528;26.740;2023-04-20T02:49:21;99158.94;;;16.27;47.70
60019;BME280;45870;42.528;26.740;2023-04-20T02:51:47;99155.22;;;16.57;48.03
60019;BME280;45870;42.528;26.740;2023-04-20T02:54:13;99083.09;;;16.44;46.87
60019;BME280;45870;42.528;26.740;2023-04-20T02:56:39;99132.44;;;17.24;45.57
60019;BME280;45870;42.528;26.740;2023-04-20T02:59:04;99155.13;;;17.19;46.41
60019;BME280;45870;42.528;26.740;2023-04-20T03:01:30;99153.94;;;17.25;45.79
60019;BME280;45870;42.528;26.740;2023-04-20T03:03:56;99155.22;;;17.57;45.57
60019;BME280;45870;42.528;26.740;2023-04-20T03:06:21;99158.00;;;17.04;46.66
60019;BME280;45870;42.528;26.740;2023-04-20T03:08:47;99104.03;;;17.25;45.89
60019;BME280;45870;42.528;26.740;2023-04-20T03:11:12;99165.53;;;17.83;45.22
60019;BME280;45870;42.528;26.740;2023-04-20T03:13:38;99167.66;;;17.86;44.61
60019;BME280;45870;42.528;26.740;2023-04-20T03:16:04;99165.75;;;17.87;44.77
60019;BME280;45870;42.528;26.740;2023-04-20T03:18:30;99163.34;;;17.62;45.10
60019;BME280;45870;42.528;26.740;2023-04-20T03:20:56;99165.72;;;17.68;45.47
60019;BME280;45870;42.528;26.740;2023-04-20T03:23:21;99156.38;;;18.12;44.58
60019;BME280;45870;42.528;26.740;2023-04-20T03:25:47;99173.94;;;18.24;44.17
60019;BME280;45870;42.528;26.740;2023-04-20T03:28:14;99177.25;;;18.03;44.55
60019;BME280;45870;42.528;26.740;2023-04-20T03:30:40;99183.81;;;17.83;45.88
60019;BME280;45870;42.528;26.740;2023-04-20T03:33:06;99177.91;;;17.94;45.55
60019;BME280;45870;42.528;26.740;2023-04-20T03:35:31;99174.53;;;18.21;44.95
60019;BME280;45870;42.528;26.740;2023-04-20T03:37:57;99185.06;;;18.09;45.42
60019;BME280;45870;42.528;26.740;2023-04-20T03:40:23;99157.09;;;17.37;46.97
60019;BME280;45870;42.528;26.740;2023-04-20T03:42:49;99175.63;;;18.20;45.80
60019;BME280;45870;42.528;26.740;2023-04-20T03:45:16;99178.56;;;17.68;46.66
60019;BME280;45870;42.528;26.740;2023-04-20T03:47:42;99176.75;;;18.01;45.72
60019;BME280;45870;42.528;26.740;2023-04-20T03:50:08;99174.09;;;18.14;45.30
60019;BME280;45870;42.528;26.740;2023-04-20T03:52:33;99176.63;;;18.62;44.78
60019;BME280;45870;42.528;26.740;2023-04-20T03:54:59;99170.16;;;18.39;45.22
60019;BME280;45870;42.528;26.740;2023-04-20T03:57:25;99171.91;;;18.48;45.06
60019;BME280;45870;42.528;26.740;2023-04-20T03:59:50;99170.28;;;16.78;49.30
60019;BME280;45870;42.528;26.740;2023-04-20T04:02:16;99174.78;;;17.16;49.19
60019;BME280;45870;42.528;26.740;2023-04-20T04:04:42;99164.53;;;16.45;51.29
60019;BME280;45870;42.528;26.740;2023-04-20T04:07:09;99172.72;;;16.02;52.94
60019;BME280;45870;42.528;26.740;2023-04-20T04:09:35;99106.00;;;16.09;51.88
60019;BME280;45870;42.528;26.740;2023-04-20T04:12:01;99160.41;;;16.82;50.55
60019;BME280;45870;42.528;26.740;2023-04-20T04:14:28;99177.34;;;17.55;49.20
60019;BME280;45870;42.528;26.740;2023-04-20T04:16:54;99171.91;;;17.74;48.46
60019;BME280;45870;42.528;26.740;2023-04-20T04:19:20;99181.81;;;17.22;50.16
60019;BME280;45870;42.528;26.740;2023-04-20T04:21:46;99175.53;;;17.22;50.39
60019;BME280;45870;42.528;26.740;2023-04-20T04:24:11;99121.22;;;16.44;50.89
60019;BME280;45870;42.528;26.740;2023-04-20T04:26:37;99187.91;;;16.52;52.00
60019;BME280;45870;42.528;26.740;2023-04-20T04:29:03;99175.47;;;16.40;53.67
60019;BME280;45870;42.528;26.740;2023-04-20T04:31:29;99168.59;;;16.09;54.08
60019;BME280;45870;42.528;26.740;2023-04-20T04:33:57;99180.47;;;17.67;49.33
60019;BME280;45870;42.528;26.740;2023-04-20T04:36:22;99161.22;;;17.59;49.89
60019;BME280;45870;42.528;26.740;2023-04-20T04:38:51;99132.53;;;17.98;47.76
60019;BME280;45870;42.528;26.740;2023-04-20T04:41:17;99124.16;;;18.27;47.78
60019;BME280;45870;42.528;26.740;2023-04-20T04:43:43;99186.38;;;18.68;47.54
60019;BME280;45870;42.528;26.740;2023-04-20T04:46:09;99186.59;;;18.71;47.48
60019;BME280;45870;42.528;26.740;2023-04-20T04:48:37;99190.19;;;17.97;49.16
60019;BME280;45870;42.528;26.740;2023-04-20T04:51:05;99183.47;;;19.51;45.96
60019;BME280;45870;42.528;26.740;2023-04-20T04:53:31;99189.44;;;20.16;44.47
60019;BME280;45870;42.528;26.740;2023-04-20T04:55:56;99189.75;;;20.28;44.52
60019;BME280;45870;42.528;26.740;2023-04-20T04:58:22;99194.03;;;20.07;43.93
60019;BME280;45870;42.528;26.740;2023-04-20T05:00:48;99192.13;;;19.12;46.13
60019;BME280;45870;42.528;26.740;2023-04-20T05:03:14;99191.53;;;19.15;46.75
60019;BME280;45870;42.528;26.740;2023-04-20T05:05:40;99194.06;;;19.25;46.87
60019;BME280;45870;42.528;26.740;2023-04-20T05:08:06;99200.59;;;19.84;45.35
60019;BME280;45870;42.528;26.740;2023-04-20T05:10:31;99208.03;;;20.33;44.31
60019;BME280;45870;42.528;26.740;2023-04-20T05:12:57;99209.41;;;19.67;45.79
60019;BME280;45870;42.528;26.740;2023-04-20T05:15:25;99199.59;;;19.53;46.21
60019;BME280;45870;42.528;26.740;2023-04-20T05:17:50;99207.19;;;19.69;45.98
60019;BME280;45870;42.528;26.740;2023-04-20T05:20:17;99203.22;;;20.61;44.90
60019;BME280;45870;42.528;26.740;2023-04-20T05:22:43;99206.59;;;19.72;46.12
60019;BME280;45870;42.528;26.740;2023-04-20T05:25:08;99183.22;;;19.07;47.88
60019;BME280;45870;42.528;26.740;2023-04-20T05:27:34;99205.16;;;20.82;44.34
60019;BME280;45870;42.528;26.740;2023-04-20T05:30:00;99199.34;;;19.35;47.27
60019;BME280;45870;42.528;26.740;2023-04-20T05:32:26;99199.06;;;19.37;46.48
60019;BME280;45870;42.528;26.740;2023-04-20T05:34:52;99202.75;;;17.27;52.84
60019;BME280;45870;42.528;26.740;2023-04-20T05:37:17;99197.94;;;19.24;48.72
60019;BME280;45870;42.528;26.740;2023-04-20T05:39:43;99173.44;;;18.87;49.03
60019;BME280;45870;42.528;26.740;2023-04-20T05:42:08;99196.53;;;19.68;48.17
60019;BME280;45870;42.528;26.740;2023-04-20T05:44:34;99202.38;;;19.07;47.84
60019;BME280;45870;42.528;26.740;2023-04-20T05:47:01;99205.25;;;18.83;50.04
60019;BME280;45870;42.528;26.740;2023-04-20T05:49:31;99207.41;;;19.59;48.46
60019;BME280;45870;42.528;26.740;2023-04-20T05:51:57;99204.13;;;20.48;45.79
60019;BME280;45870;42.528;26.740;2023-04-20T05:54:23;99200.06;;;19.27;48.55
60019;BME280;45870;42.528;26.740;2023-04-20T05:56:49;99206.63;;;18.67;48.99
60019;BME280;45870;42.528;26.740;2023-04-20T05:59:15;99201.38;;;19.30;48.85
60019;BME280;45870;42.528;26.740;2023-04-20T06:01:41;99210.13;;;18.54;49.56
60019;BME280;45870;42.528;26.740;2023-04-20T06:04:07;99142.84;;;19.94;47.03
60019;BME280;45870;42.528;26.740;2023-04-20T06:06:33;99209.19;;;20.63;44.68
60019;BME280;45870;42.528;26.740;2023-04-20T06:08:58;99213.22;;;18.79;49.34
60019;BME280;45870;42.528;26.740;2023-04-20T06:11:24;99193.56;;;19.10;48.91
60019;BME280;45870;42.528;26.740;2023-04-20T06:13:50;99218.47;;;18.76;49.95
60019;BME280;45870;42.528;26.740;2023-04-20T06:16:15;99208.63;;;18.61;50.24
60019;BME280;45870;42.528;26.740;2023-04-20T06:18:41;99218.34;;;21.03;44.54
60019;BME280;45870;42.528;26.740;2023-04-20T06:21:09;99218.06;;;20.60;46.20
60019;BME280;45870;42.528;26.740;2023-04-20T06:23:35;99198.38;;;18.85;48.79
60019;BME280;45870;42.528;26.740;2023-04-20T06:26:03;99207.44;;;20.09;46.37
60019;BME280;45870;42.528;26.740;2023-04-20T06:28:28;99207.53;;;19.22;47.93
60019;BME280;45870;42.528;26.740;2023-04-20T06:30:54;99214.56;;;20.46;46.23
60019;BME280;45870;42.528;26.740;2023-04-20T06:33:20;99217.03;;;19.84;46.40
60019;BME280;45870;42.528;26.740;2023-04-20T06:35:45;99226.41;;;19.23;48.73
60019;BME280;45870;42.528;26.740;2023-04-20T06:38:11;99223.22;;;22.75;41.21
60019;BME280;45870;42.528;26.740;2023-04-20T06:40:37;99223.38;;;21.71;43.20
60019;BME280;45870;42.528;26.740;2023-04-20T06:43:02;99179.22;;;19.45;46.72
60019;BME280;45870;42.528;26.740;2023-04-20T06:45:28;99224.38;;;20.11;45.54
60019;BME280;45870;42.528;26.740;2023-04-20T06:47:53;99231.91;;;19.78;47.13
60019;BME280;45870;42.528;26.740;2023-04-20T06:50:19;99223.75;;;21.47;42.56
60019;BME280;45870;42.528;26.740;2023-04-20T06:52:46;99228.66;;;20.53;43.76
60019;BME280;45870;42.528;26.740;2023-04-20T06:55:12;99229.31;;;20.36;45.80
60019;BME280;45870;42.528;26.740;2023-04-20T06:57:38;99225.84;;;20.66;44.64
60019;BME280;45870;42.528;26.740;2023-04-20T07:00:08;99184.25;;;21.57;42.63
60019;BME280;45870;42.528;26.740;2023-04-20T07:02:48;99232.97;;;20.89;42.81
60019;BME280;45870;42.528;26.740;2023-04-20T07:05:14;99236.41;;;21.26;42.34
60019;BME280;45870;42.528;26.740;2023-04-20T07:07:41;99237.00;;;20.48;43.39
60019;BME280;45870;42.528;26.740;2023-04-20T07:10:08;99230.28;;;21.20;42.81
60019;BME280;45870;42.528;26.740;2023-04-20T07:12:35;99231.94;;;22.52;41.75
60019;BME280;45870;42.528;26.740;2023-04-20T07:15:02;99229.31;;;25.03;34.57
60019;BME280;45870;42.528;26.740;2023-04-20T07:17:29;99215.94;;;22.71;38.44
60019;BME280;45870;42.528;26.740;2023-04-20T07:19:54;99226.44;;;25.93;32.70
60019;BME280;45870;42.528;26.740;2023-04-20T07:22:21;99236.56;;;24.33;36.16
60019;BME280;45870;42.528;26.740;2023-04-20T07:24:46;99232.91;;;23.92;36.29
60019;BME280;45870;42.528;26.740;2023-04-20T07:27:12;99239.84;;;25.22;33.28
60019;BME280;45870;42.528;26.740;2023-04-20T07:29:38;99232.03;;;24.50;36.39
60019;BME280;45870;42.528;26.740;2023-04-20T07:32:04;99240.25;;;24.08;36.81
60019;BME280;45870;42.528;26.740;2023-04-20T07:34:29;99243.41;;;24.27;35.21
60019;BME280;45870;42.528;26.740;2023-04-20T07:36:55;99246.03;;;24.86;35.94
60019;BME280;45870;42.528;26.740;2023-04-20T07:39:21;99243.44;;;25.02;35.64
60019;BME280;45870;42.528;26.740;2023-04-20T07:41:47;99232.59;;;22.83;38.82
60019;BME280;45870;42.528;26.740;2023-04-20T07:44:13;99239.09;;;24.18;35.99
60019;BME280;45870;42.528;26.740;2023-04-20T07:46:38;99236.72;;;27.56;32.26
60019;BME280;45870;42.528;26.740;2023-04-20T07:49:04;99244.84;;;28.81;30.41
60019;BME280;45870;42.528;26.740;2023-04-20T07:51:30;99199.13;;;25.43;33.84
60019;BME280;45870;42.528;26.740;2023-04-20T07:53:58;99238.19;;;25.66;33.30
60019;BME280;45870;42.528;26.740;2023-04-20T07:56:24;99245.38;;;22.53;38.76
60019;BME280;45870;42.528;26.740;2023-04-20T07:58:50;99246.81;;;25.07;35.34
60019;BME280;45870;42.528;26.740;2023-04-20T08:01:16;99248.78;;;24.65;35.70
60019;BME280;45870;42.528;26.740;2023-04-20T08:03:42;99245.66;;;23.67;37.51
60019;BME280;45870;42.528;26.740;2023-04-20T08:06:08;99238.44;;;22.90;38.63
60019;BME280;45870;42.528;26.740;2023-04-20T08:08:35;99237.28;;;23.55;38.97
60019;BME280;45870;42.528;26.740;2023-04-20T08:11:00;99198.97;;;23.70;36.73
60019;BME280;45870;42.528;26.740;2023-04-20T08:13:26;99236.59;;;21.60;40.45
60019;BME280;45870;42.528;26.740;2023-04-20T08:15:52;99225.94;;;22.50;39.28
60019;BME280;45870;42.528;26.740;2023-04-20T08:18:21;99238.75;;;23.52;37.79
60019;BME280;45870;42.528;26.740;2023-04-20T08:20:47;99230.22;;;26.37;34.22
60019;BME280;45870;42.528;26.740;2023-04-20T08:23:12;99231.84;;;24.55;38.09
60019;BME280;45870;42.528;26.740;2023-04-20T08:25:38;99243.94;;;23.92;38.60
60019;BME280;45870;42.528;26.740;2023-04-20T08:28:05;99238.53;;;25.07;35.91
60019;BME280;45870;42.528;26.740;2023-04-20T08:30:31;99218.44;;;24.86;35.14
60019;BME280;45870;42.528;26.740;2023-04-20T08:32:57;99183.44;;;23.19;37.87
60019;BME280;45870;42.528;26.740;2023-04-20T08:35:23;99242.44;;;21.36;39.95
60019;BME280;45870;42.528;26.740;2023-04-20T08:37:49;99245.88;;;22.55;38.77
60019;BME280;45870;42.528;26.740;2023-04-20T08:40:16;99240.16;;;23.96;37.32
60019;BME280;45870;42.528;26.740;2023-04-20T08:42:44;99241.22;;;25.28;33.76
60019;BME280;45870;42.528;26.740;2023-04-20T08:45:11;99246.63;;;24.00;35.28
60019;BME280;45870;42.528;26.740;2023-04-20T08:47:37;99246.78;;;24.33;36.27
60019;BME280;45870;42.528;26.740;2023-04-20T08:50:04;99242.16;;;23.87;37.78
60019;BME280;45870;42.528;26.740;2023-04-20T08:52:31;99243.16;;;23.45;36.82
60019;BME280;45870;42.528;26.740;2023-04-20T08:54:57;99228.31;;;24.46;34.78
60019;BME280;45870;42.528;26.740;2023-04-20T08:57:23;99238.16;;;23.76;36.28
60019;BME280;45870;42.528;26.740;2023-04-20T08:59:49;99235.28;;;23.17;37.08
60019;BME280;45870;42.528;26.740;2023-04-20T09:02:16;99237.28;;;23.55;36.32
60019;BME280;45870;42.528;26.740;2023-04-20T09:04:42;99236.03;;;23.81;34.63
60019;BME280;45870;42.528;26.740;2023-04-20T09:07:17;99209.78;;;22.57;36.75
60019;BME280;45870;42.528;26.740;2023-04-20T09:09:56;99226.44;;;22.60;37.32
60019;BME280;45870;42.528;26.740;2023-04-20T09:12:23;99215.13;;;24.93;33.50
60019;BME280;45870;42.528;26.740;2023-04-20T09:14:49;99234.34;;;22.87;35.67
60019;BME280;45870;42.528;26.740;2023-04-20T09:17:16;99236.03;;;23.35;36.17
60019;BME280;45870;42.528;26.740;2023-04-20T09:19:44;99232.84;;;23.24;36.22
60019;BME280;45870;42.528;26.740;2023-04-20T09:22:10;99234.63;;;25.08;33.29
60019;BME280;45870;42.528;26.740;2023-04-20T09:24:37;99237.53;;;23.15;36.52
60019;BME280;45870;42.528;26.740;2023-04-20T09:27:18;99222.78;;;23.75;35.41
60019;BME280;45870;42.528;26.740;2023-04-20T09:29:55;99226.19;;;26.35;31.04
60019;BME280;45870;42.528;26.740;2023-04-20T09:32:23;99224.28;;;25.17;32.91
60019;BME280;45870;42.528;26.740;2023-04-20T09:34:49;99227.00;;;24.52;34.21
60019;BME280;45870;42.528;26.740;2023-04-20T09:37:15;99228.19;;;23.92;33.43
60019;BME280;45870;42.528;26.740;2023-04-20T09:39:43;99219.28;;;26.04;31.16
60019;BME280;45870;42.528;26.740;2023-04-20T09:42:11;99220.22;;;26.20;28.21
60019;BME280;45870;42.528;26.740;2023-04-20T09:44:38;99224.44;;;25.45;30.33
60019;BME280;45870;42.528;26.740;2023-04-20T09:47:05;99223.94;;;23.19;34.51
60019;BME280;45870;42.528;26.740;2023-04-20T09:49:31;99220.00;;;25.77;31.34
60019;BME280;45870;42.528;26.740;2023-04-20T09:51:57;99219.59;;;23.64;35.17
60019;BME280;45870;42.528;26.740;2023-04-20T09:54:26;99216.34;;;23.62;33.75
60019;BME280;45870;42.528;26.740;2023-04-20T09:56:53;99170.13;;;22.06;35.01
60019;BME280;45870;42.528;26.740;2023-04-20T09:59:20;99173.25;;;24.37;31.22
60019;BME280;45870;42.528;26.740;2023-04-20T10:01:46;99164.72;;;23.80;30.94
60019;BME280;45870;42.528;26.740;2023-04-20T10:04:12;99207.97;;;22.52;35.57
60019;BME280;45870;42.528;26.740;2023-04-20T10:06:39;99216.56;;;24.36;32.65
60019;BME280;45870;42.528;26.740;2023-04-20T10:09:23;99207.50;;;26.71;29.94
60019;BME280;45870;42.528;26.740;2023-04-20T10:11:51;99085.50;;;25.97;27.84
60019;BME280;45870;42.528;26.740;2023-04-20T10:14:22;99194.06;;;23.47;30.92
60019;BME280;45870;42.528;26.740;2023-04-20T10:17:08;99200.81;;;24.16;31.39
60019;BME280;45870;42.528;26.740;2023-04-20T10:19:43;99195.81;;;28.00;26.27
60019;BME280;45870;42.528;26.740;2023-04-20T10:22:11;99191.50;;;23.42;35.52
60019;BME280;45870;42.528;26.740;2023-04-20T10:24:37;99198.78;;;22.65;35.46
60019;BME280;45870;42.528;26.740;2023-04-20T10:27:14;99194.31;;;24.42;33.50
60019;BME280;45870;42.528;26.740;2023-04-20T10:29:41;99187.13;;;25.39;31.32
60019;BME280;45870;42.528;26.740;2023-04-20T10:32:06;99173.78;;;27.56;27.86
60019;BME280;45870;42.528;26.740;2023-04-20T10:34:34;99169.84;;;24.73;31.41
60019;BME280;45870;42.528;26.740;2023-04-20T10:37:07;99186.84;;;23.25;36.63
60019;BME280;45870;42.528;26.740;2023-04-20T10:39:34;99184.19;;;24.25;30.73
60019;BME280;45870;42.528;26.740;2023-04-20T10:42:02;99170.94;;;24.93;30.30
60019;BME280;45870;42.528;26.740;2023-04-20T10:44:28;99176.91;;;28.21;27.49
60019;BME280;45870;42.528;26.740;2023-04-20T10:46:54;99179.47;;;27.32;28.37
60019;BME280;45870;42.528;26.740;2023-04-20T10:49:25;99166.19;;;28.04;28.18
60019;BME280;45870;42.528;26.740;2023-04-20T10:51:52;99186.19;;;27.31;27.53
60019;BME280;45870;42.528;26.740;2023-04-20T10:54:18;99185.44;;;25.83;29.80
60019;BME280;45870;42.528;26.740;2023-04-20T10:56:51;99193.94;;;26.54;29.15
60019;BME280;45870;42.528;26.740;2023-04-20T10:59:22;99190.22;;;28.89;25.50
60019;BME280;45870;42.528;26.740;2023-04-20T11:01:50;99187.31;;;25.79;31.24
60019;BME280;45870;42.528;26.740;2023-04-20T11:04:16;99196.44;;;24.36;31.81
60019;BME280;45870;42.528;26.740;2023-04-20T11:06:44;99192.50;;;23.96;31.88
60019;BME280;45870;42.528;26.740;2023-04-20T11:09:22;99196.63;;;24.72;31.05
60019;BME280;45870;42.528;26.740;2023-04-20T11:12:01;99191.97;;;24.02;34.56
60019;BME280;45870;42.528;26.740;2023-04-20T11:14:27;99194.03;;;24.34;32.44
60019;BME280;45870;42.528;26.740;2023-04-20T11:16:53;99151.31;;;24.41;32.88
60019;BME280;45870;42.528;26.740;2023-04-20T11:19:30;99185.91;;;24.71;32.89
60019;BME280;45870;42.528;26.740;2023-04-20T11:21:57;99187.81;;;23.20;33.45
60019;BME280;45870;42.528;26.740;2023-04-20T11:24:24;99178.28;;;23.64;32.88
60019;BME280;45870;42.528;26.740;2023-04-20T11:26:51;99179.69;;;25.76;31.18
60019;BME280;45870;42.528;26.740;2023-04-20T11:29:36;99182.09;;;25.77;31.81
60019;BME280;45870;42.528;26.740;2023-04-20T11:32:07;99174.88;;;28.95;25.77
60019;BME280;45870;42.528;26.740;2023-04-20T11:34:34;99176.56;;;27.56;28.27
60019;BME280;45870;42.528;26.740;2023-04-20T11:37:05;99168.25;;;30.23;22.59
60019;BME280;45870;42.528;26.740;2023-04-20T11:39:32;99173.78;;;28.80;24.13
60019;BME280;45870;42.528;26.740;2023-04-20T11:41:58;99170.78;;;29.80;24.26
60019;BME280;45870;42.528;26.740;2023-04-20T11:44:24;99165.94;;;28.86;25.32
60019;BME280;45870;42.528;26.740;2023-04-20T11:46:52;99163.06;;;24.29;31.25
60019;BME280;45870;42.528;26.740;2023-04-20T11:49:19;99165.66;;;24.67;31.15
60019;BME280;45870;42.528;26.740;2023-04-20T11:51:46;99148.03;;;23.76;32.20
60019;BME280;45870;42.528;26.740;2023-04-20T11:54:12;99158.06;;;23.52;34.80
60019;BME280;45870;42.528;26.740;2023-04-20T11:56:39;99155.72;;;22.78;35.71
60019;BME280;45870;42.528;26.740;2023-04-20T11:59:07;99158.97;;;22.46;35.79
60019;BME280;45870;42.528;26.740;2023-04-20T12:01:34;99160.25;;;23.29;33.79
60019;BME280;45870;42.528;26.740;2023-04-20T12:04:00;99162.59;;;24.06;33.70
60019;BME280;45870;42.528;26.740;2023-04-20T12:06:29;99147.63;;;24.16;32.86
60019;BME280;45870;42.528;26.740;2023-04-20T12:08:56;99156.84;;;23.91;32.95
60019;BME280;45870;42.528;26.740;2023-04-20T12:11:22;99152.09;;;24.62;32.62
60019;BME280;45870;42.528;26.740;2023-04-20T12:13:48;99154.56;;;25.69;32.29
60019;BME280;45870;42.528;26.740;2023-04-20T12:16:14;99115.50;;;23.91;33.67
60019;BME280;45870;42.528;26.740;2023-04-20T12:18:39;99166.19;;;23.77;34.55
60019;BME280;45870;42.528;26.740;2023-04-20T12:21:06;99155.34;;;24.76;32.87
60019;BME280;45870;42.528;26.740;2023-04-20T12:23:32;99151.25;;;25.51;31.44
60019;BME280;45870;42.528;26.740;2023-04-20T12:25:58;99147.59;;;23.95;33.97
60019;BME280;45870;42.528;26.740;2023-04-20T12:28:24;99151.50;;;24.89;34.89
60019;BME280;45870;42.528;26.740;2023-04-20T12:30:50;99126.91;;;24.30;32.18
60019;BME280;45870;42.528;26.740;2023-04-20T12:33:15;99148.84;;;24.93;32.26
60019;BME280;45870;42.528;26.740;2023-04-20T12:35:42;99098.19;;;23.31;33.82
60019;BME280;45870;42.528;26.740;2023-04-20T12:38:08;99126.25;;;24.46;32.15
60019;BME280;45870;42.528;26.740;2023-04-20T12:40:34;99137.72;;;24.68;31.50
60019;BME280;45870;42.528;26.740;2023-04-20T12:43:00;99117.44;;;24.85;31.37
60019;BME280;45870;42.528;26.740;2023-04-20T12:45:25;99134.75;;;25.18;31.87
60019;BME280;45870;42.528;26.740;2023-04-20T12:47:51;99130.19;;;26.23;30.27